Time;durP1;ratioP1;P1;durP2;ratioP2;P2;SDS_P1;SDS_P2;PMS_P1;PMS_P2;Temp;Humidity;BMP_temperature;BMP_pressure;BME280_temperature;BME280_humidity;BME280_pressure;Samples;Min_cycle;Max_cycle;Signal;HPM_P1;HPM_P2
2022/12/15 00:41:03;;;;;;;9.60;6.20;;;-3.70;94.80;;;;;;5002494;28;20405;-86
2022/12/15 00:43:30;;;;;;;14.35;8.60;;;-3.60;95.20;;;;;;5019157;28;20550;-87
2022/12/15 00:48:40;;;;;;;12.40;6.95;;;-3.50;95.20;;;;;;5001851;28;20409;-86
2022/12/15 00:51:06;;;;;;;9.90;6.57;;;-3.50;95.10;;;;;;5019623;28;20441;-87
2022/12/15 01:20:56;;;;;;;10.43;5.45;;;-3.30;95.50;;;;;;5024059;28;20435;-86
2022/12/15 01:23:22;;;;;;;12.80;6.90;;;-3.30;95.50;;;;;;5012214;28;20408;-87
2022/12/15 01:25:51;;;;;;;8.80;5.50;;;-3.30;95.30;;;;;;5019309;28;20412;-86
2022/12/15 01:28:18;;;;;;;9.75;4.95;;;-3.30;95.40;;;;;;5001724;28;20405;-86
2022/12/15 01:30:44;;;;;;;9.27;4.47;;;-3.40;95.00;;;;;;5002175;28;20432;-86
2022/12/15 01:33:09;;;;;;;9.77;5.47;;;-3.40;95.20;;;;;;5002150;28;20401;-86
2022/12/15 01:35:35;;;;;;;11.80;6.30;;;-3.40;95.20;;;;;;5018154;28;20854;-86
2022/12/15 01:38:00;;;;;;;8.98;4.60;;;-3.40;94.70;;;;;;5003124;28;20440;-87
2022/12/15 01:40:44;;;;;;;11.00;6.03;;;-3.50;95.00;;;;;;5018325;28;20479;-84
2022/12/15 01:43:21;;;;;;;20.77;11.88;;;-3.50;94.90;;;;;;5002671;28;20436;-86
2022/12/15 01:45:49;;;;;;;11.38;5.90;;;-3.40;95.70;;;;;;5002042;28;20504;-86
2022/12/15 01:48:41;;;;;;;12.07;6.70;;;-3.40;95.60;;;;;;5018598;28;20401;-87
2022/12/15 01:51:13;;;;;;;9.48;4.63;;;-3.40;95.40;;;;;;5002761;28;20432;-86
2022/12/15 01:53:51;;;;;;;8.98;4.50;;;-3.30;95.50;;;;;;5001722;28;20440;-87
2022/12/15 01:56:19;;;;;;;10.43;5.10;;;-3.30;95.50;;;;;;5002695;28;20435;-87
2022/12/15 01:58:47;;;;;;;9.75;5.03;;;-3.30;95.20;;;;;;5017915;28;20405;-87
2022/12/15 02:01:13;;;;;;;10.10;5.72;;;-3.30;95.30;;;;;;5001717;28;20409;-86
2022/12/15 02:03:40;;;;;;;9.77;4.82;;;-3.30;95.50;;;;;;5001962;28;20432;-87
2022/12/15 02:06:07;;;;;;;10.10;4.80;;;-3.30;95.60;;;;;;5017916;28;20472;-87
2022/12/15 02:08:34;;;;;;;7.88;4.30;;;-3.30;95.30;;;;;;5002514;28;20441;-86
2022/12/15 02:11:07;;;;;;;7.95;3.50;;;-3.30;95.20;;;;;;5000988;28;20449;-87
2022/12/15 02:14:00;;;;;;;12.25;4.35;;;-3.30;94.90;;;;;;5002523;28;20492;-87
2022/12/15 02:17:11;;;;;;;7.93;3.05;;;-3.30;95.20;;;;;;5005573;28;20428;-86
2022/12/15 02:19:52;;;;;;;6.00;2.83;;;-3.30;95.40;;;;;;5018972;28;20441;-86
2022/12/15 02:22:20;;;;;;;7.20;3.22;;;-3.30;94.90;;;;;;5006109;28;20421;-87
2022/12/15 02:25:08;;;;;;;8.10;2.88;;;-3.30;95.00;;;;;;5021506;28;20409;-86
2022/12/15 02:28:25;;;;;;;7.65;3.20;;;-3.40;94.90;;;;;;5005669;28;20431;-86
2022/12/15 02:33:56;;;;;;;6.05;2.58;;;-3.40;94.60;;;;;;5005061;28;20448;-87
2022/12/15 02:36:34;;;;;;;6.75;2.50;;;-3.40;94.70;;;;;;5004816;28;20931;-87
2022/12/15 02:39:00;;;;;;;7.28;3.08;;;-3.50;94.40;;;;;;5006084;28;20405;-87
2022/12/15 02:41:36;;;;;;;6.47;3.00;;;-3.50;94.80;;;;;;5004325;28;20474;-85
2022/12/15 02:44:15;;;;;;;8.32;3.28;;;-3.50;94.80;;;;;;5021584;28;20451;-87
2022/12/15 02:46:59;;;;;;;8.20;2.70;;;-3.50;95.10;;;;;;5021373;28;20483;-87
2022/12/15 02:50:01;;;;;;;8.43;3.22;;;-3.40;95.30;;;;;;5020618;28;20417;-86
2022/12/15 02:52:51;;;;;;;8.18;2.72;;;-3.50;95.20;;;;;;5021755;28;20417;-87
2022/12/15 02:55:25;;;;;;;7.38;2.13;;;-3.40;95.50;;;;;;5021313;28;20504;-86
2022/12/15 02:58:21;;;;;;;8.15;1.83;;;-3.40;95.00;;;;;;5020857;28;20424;-87
2022/12/15 03:00:57;;;;;;;4.97;2.30;;;-3.50;94.90;;;;;;5021875;28;20421;-87
2022/12/15 03:03:23;;;;;;;7.83;1.57;;;-3.50;95.00;;;;;;5004270;28;20405;-86
2022/12/15 03:05:54;;;;;;;5.55;1.70;;;-3.50;95.00;;;;;;5005019;28;20495;-86
2022/12/15 03:08:21;;;;;;;6.30;1.95;;;-3.50;94.60;;;;;;5004385;28;20488;-86
2022/12/15 03:10:49;;;;;;;5.80;2.10;;;-3.50;95.00;;;;;;5020976;28;21009;-86
2022/12/15 03:13:15;;;;;;;6.95;2.05;;;-3.50;95.00;;;;;;4989269;28;20799;-87
2022/12/15 03:15:41;;;;;;;6.10;2.10;;;-3.60;94.70;;;;;;5020108;28;20539;-86
2022/12/15 03:18:07;;;;;;;8.98;1.70;;;-3.60;94.60;;;;;;5005447;28;20771;-86
2022/12/15 03:20:32;;;;;;;7.13;1.45;;;-3.60;94.70;;;;;;5020464;28;20412;-86
2022/12/15 03:22:58;;;;;;;5.80;1.38;;;-3.60;94.70;;;;;;5020903;28;20401;-87
2022/12/15 03:25:24;;;;;;;4.63;1.17;;;-3.60;94.90;;;;;;5020386;28;20421;-87
2022/12/15 03:27:49;;;;;;;4.97;1.00;;;-3.60;94.80;;;;;;5019865;28;20404;-87
2022/12/15 03:30:15;;;;;;;7.70;1.55;;;-3.60;94.90;;;;;;5020723;28;20429;-86
2022/12/15 03:32:40;;;;;;;8.15;1.60;;;-3.60;94.70;;;;;;5020585;28;20467;-87
2022/12/15 03:35:06;;;;;;;6.43;2.30;;;-3.60;95.10;;;;;;5021078;28;20420;-86
2022/12/15 03:37:32;;;;;;;7.82;1.70;;;-3.60;95.20;;;;;;5020012;28;20919;-86
2022/12/15 03:39:58;;;;;;;5.60;1.13;;;-3.60;95.00;;;;;;5021236;28;20485;-87
2022/12/15 03:45:08;;;;;;;7.27;0.80;;;-3.50;95.40;;;;;;5004166;28;20496;-86
2022/12/15 03:47:33;;;;;;;6.50;0.80;;;-3.50;95.30;;;;;;5003711;28;20488;-86
2022/12/15 03:49:59;;;;;;;8.83;1.70;;;-3.50;95.20;;;;;;5019906;28;20463;-86
2022/12/15 03:52:25;;;;;;;7.40;0.87;;;-3.40;95.40;;;;;;5004713;28;20802;-86
2022/12/15 03:54:50;;;;;;;10.07;1.10;;;-3.40;95.30;;;;;;5019368;28;20496;-86
2022/12/15 03:57:16;;;;;;;6.57;1.33;;;-3.40;95.40;;;;;;5020602;28;20424;-87
2022/12/15 03:59:41;;;;;;;5.20;0.73;;;-3.40;95.30;;;;;;5019572;28;20417;-86
2022/12/15 04:02:10;;;;;;;8.00;0.90;;;-3.40;95.30;;;;;;5020574;28;21002;-87
2022/12/15 04:04:36;;;;;;;5.18;0.95;;;-3.40;95.20;;;;;;5003498;28;20440;-87
2022/12/15 04:07:02;;;;;;;8.32;1.85;;;-3.40;95.30;;;;;;5003369;28;20883;-86
2022/12/15 04:09:27;;;;;;;7.13;1.23;;;-3.40;95.40;;;;;;5020769;28;20424;-87
2022/12/15 04:11:53;;;;;;;8.53;1.80;;;-3.40;95.50;;;;;;5002713;28;20440;-87
2022/12/15 04:14:19;;;;;;;8.13;2.25;;;-3.30;95.70;;;;;;5020940;28;20870;-86
2022/12/15 04:16:44;;;;;;;7.50;1.80;;;-3.30;95.60;;;;;;5019590;28;20459;-87
2022/12/15 04:21:54;;;;;;;5.82;2.08;;;-3.30;95.70;;;;;;5002715;28;20911;-87
2022/12/15 05:32:42;;;;;;;10.35;2.85;;;-2.20;96.20;;;;;;5003094;28;20474;-88
2022/12/15 05:35:08;;;;;;;12.63;3.15;;;-2.00;96.20;;;;;;5018287;28;20915;-87
2022/12/15 05:37:34;;;;;;;9.80;2.93;;;-1.90;96.40;;;;;;5019151;28;20423;-87
2022/12/15 05:39:59;;;;;;;8.90;2.50;;;-1.70;96.50;;;;;;5018992;28;20459;-87
2022/12/15 05:42:25;;;;;;;9.23;2.58;;;-1.60;96.20;;;;;;5002675;28;20420;-87
2022/12/15 05:44:52;;;;;;;7.93;2.08;;;-1.50;96.00;;;;;;5019055;28;20503;-87
2022/12/15 05:47:18;;;;;;;7.23;1.97;;;-1.40;96.00;;;;;;5018149;28;20503;-87
2022/12/15 05:49:43;;;;;;;7.75;2.00;;;-1.30;95.80;;;;;;5020455;28;20751;-87
2022/12/15 05:52:09;;;;;;;5.67;2.17;;;-1.30;95.60;;;;;;5005499;28;20516;-88
2022/12/15 05:54:34;;;;;;;6.93;1.90;;;-1.30;95.40;;;;;;5022898;28;20922;-87
2022/12/15 05:57:00;;;;;;;7.30;2.10;;;-1.20;95.30;;;;;;5022499;28;20412;-86
2022/12/15 05:59:25;;;;;;;8.63;2.10;;;-1.30;95.00;;;;;;5022874;28;20900;-88
2022/12/15 06:01:51;;;;;;;6.43;1.70;;;-1.30;95.20;;;;;;5022305;28;20471;-87
2022/12/15 06:04:17;;;;;;;9.20;1.77;;;-1.30;95.10;;;;;;5022331;28;20405;-87
2022/12/15 06:06:42;;;;;;;5.97;1.45;;;-1.30;94.60;;;;;;5005732;28;20451;-88
2022/12/15 06:09:08;;;;;;;5.25;1.55;;;-1.30;94.90;;;;;;5005692;28;20405;-88
2022/12/15 06:11:34;;;;;;;6.65;1.90;;;-1.20;95.00;;;;;;5006415;28;20428;-87
2022/12/15 06:14:00;;;;;;;7.15;1.50;;;-1.40;95.00;;;;;;5005302;28;20415;-88
2022/12/15 06:16:29;;;;;;;8.17;2.13;;;-1.40;95.20;;;;;;4979635;28;20452;-87
2022/12/15 06:18:57;;;;;;;7.30;2.10;;;-1.40;94.90;;;;;;4993629;28;20454;-87
2022/12/15 06:21:29;;;;;;;8.27;1.77;;;-1.40;94.80;;;;;;5024673;28;20400;-87
2022/12/15 06:23:56;;;;;;;7.93;1.58;;;-1.40;94.70;;;;;;4989842;28;20538;-86
2022/12/15 06:26:27;;;;;;;6.03;1.45;;;-1.50;94.50;;;;;;5005116;28;20407;-87
2022/12/15 06:28:55;;;;;;;7.13;1.48;;;-1.60;94.50;;;;;;5005878;28;20417;-86
2022/12/15 06:31:24;;;;;;;7.70;1.70;;;-1.60;94.60;;;;;;5005097;28;20437;-86
2022/12/15 06:33:54;;;;;;;5.05;1.27;;;-1.60;94.80;;;;;;5004793;28;20405;-87
2022/12/15 06:36:20;;;;;;;5.50;1.50;;;-1.60;94.60;;;;;;5005105;28;20772;-87
2022/12/15 06:38:46;;;;;;;8.77;1.65;;;-1.60;94.70;;;;;;5004698;28;20416;-87
2022/12/15 06:41:15;;;;;;;7.18;1.58;;;-1.70;94.70;;;;;;5006028;28;20843;-87
2022/12/15 06:43:41;;;;;;;5.25;1.42;;;-1.60;94.90;;;;;;5005035;28;20764;-87
2022/12/15 06:46:07;;;;;;;6.05;1.70;;;-1.60;94.80;;;;;;5005933;28;20409;-86
2022/12/15 06:48:34;;;;;;;9.60;2.20;;;-1.60;95.10;;;;;;5004631;28;20420;-87
2022/12/15 06:51:04;;;;;;;8.57;2.35;;;-1.60;94.90;;;;;;5004784;28;20999;-87
2022/12/15 06:53:30;;;;;;;7.47;2.70;;;-1.50;95.20;;;;;;5005227;28;20420;-87
2022/12/15 06:56:01;;;;;;;9.27;2.70;;;-1.50;94.90;;;;;;5004500;28;20412;-87
2022/12/15 06:58:26;;;;;;;7.28;2.10;;;-1.50;95.20;;;;;;5005649;28;20504;-88
2022/12/15 07:00:52;;;;;;;8.67;2.50;;;-1.50;95.20;;;;;;5003529;28;20537;-86
2022/12/15 07:03:18;;;;;;;8.87;3.17;;;-1.40;95.10;;;;;;5005230;28;20416;-87
2022/12/15 07:05:44;;;;;;;8.43;3.60;;;-1.40;95.30;;;;;;5004362;28;20412;-88
2022/12/15 07:08:11;;;;;;;10.25;3.33;;;-1.40;95.30;;;;;;5021442;28;20421;-87
2022/12/15 07:10:41;;;;;;;10.32;3.60;;;-1.30;95.70;;;;;;5004265;28;20433;-87
2022/12/15 07:13:11;;;;;;;8.32;3.15;;;-1.20;95.70;;;;;;4988175;28;20409;-87
2022/12/15 07:15:38;;;;;;;10.52;3.97;;;-1.10;95.70;;;;;;5005000;28;20781;-87
2022/12/15 07:18:05;;;;;;;9.10;3.20;;;-1.00;95.60;;;;;;5004246;28;20409;-88
2022/12/15 07:20:31;;;;;;;10.63;3.60;;;-0.90;95.70;;;;;;5005276;28;21394;-88
2022/12/15 07:22:56;;;;;;;8.55;3.03;;;-0.80;95.50;;;;;;5020433;28;20410;-87
2022/12/15 07:25:22;;;;;;;9.63;3.30;;;-0.80;95.30;;;;;;5004632;28;20416;-88
2022/12/15 07:27:48;;;;;;;8.77;3.13;;;-0.80;95.00;;;;;;5004584;28;20864;-87
2022/12/15 07:30:16;;;;;;;10.05;3.38;;;-0.80;95.20;;;;;;5004554;28;20425;-88
2022/12/15 07:32:43;;;;;;;8.30;2.70;;;-0.80;95.20;;;;;;5004220;28;20892;-88
2022/12/15 07:35:09;;;;;;;10.40;3.30;;;-0.90;95.10;;;;;;5003937;28;20448;-87
2022/12/15 07:37:35;;;;;;;5.43;2.53;;;-0.80;95.00;;;;;;5005369;28;20835;-88
2022/12/15 07:40:01;;;;;;;9.25;2.35;;;-0.80;95.10;;;;;;5003970;28;21033;-87
2022/12/15 07:42:30;;;;;;;7.70;2.38;;;-0.80;94.80;;;;;;5004872;28;20428;-88
2022/12/15 07:44:56;;;;;;;7.13;2.20;;;-0.70;95.10;;;;;;5003530;28;20440;-87
2022/12/15 07:47:22;;;;;;;10.45;1.80;;;-0.80;95.00;;;;;;5004477;28;21213;-88
2022/12/15 07:49:48;;;;;;;7.22;1.60;;;-0.80;94.90;;;;;;5004543;28;20420;-87
2022/12/15 07:52:13;;;;;;;7.43;2.03;;;-0.80;94.60;;;;;;5003848;28;20452;-92
2022/12/15 07:54:39;;;;;;;7.37;2.00;;;-0.80;94.70;;;;;;5005464;28;20417;-87
2022/12/15 07:57:09;;;;;;;5.70;1.20;;;-0.80;94.70;;;;;;5003260;28;20528;-87
2022/12/15 07:59:34;;;;;;;8.63;1.50;;;-0.80;94.80;;;;;;5005192;28;20412;-88
2022/12/15 08:02:02;;;;;;;6.07;1.50;;;-0.80;94.80;;;;;;5003642;28;20413;-88
2022/12/15 08:04:29;;;;;;;8.93;2.08;;;-0.70;95.10;;;;;;5004127;28;20455;-87
2022/12/15 08:06:55;;;;;;;8.15;1.85;;;-0.60;95.20;;;;;;5004408;28;20882;-86
2022/12/15 08:09:20;;;;;;;8.40;1.90;;;-0.50;95.10;;;;;;5003924;28;20757;-88
2022/12/15 08:11:46;;;;;;;7.95;1.65;;;-0.40;95.00;;;;;;5004198;28;20429;-87
2022/12/15 08:14:12;;;;;;;7.72;1.88;;;-0.40;95.10;;;;;;5002985;28;20409;-87
2022/12/15 08:16:38;;;;;;;10.85;3.00;;;-0.30;95.00;;;;;;5004724;28;20502;-87
2022/12/15 08:19:05;;;;;;;8.02;3.10;;;-0.30;94.70;;;;;;5003045;28;20401;-87
2022/12/15 08:21:32;;;;;;;7.85;3.15;;;-0.20;94.90;;;;;;5004195;28;20931;-88
2022/12/15 08:23:59;;;;;;;8.90;3.42;;;-0.10;94.80;;;;;;5003345;28;20768;-87
2022/12/15 08:26:25;;;;;;;7.72;3.58;;;0.00;95.00;;;;;;5003801;28;20510;-87
2022/12/15 08:28:51;;;;;;;14.73;5.40;;;0.20;94.80;;;;;;5003289;28;20907;-87
2022/12/15 08:31:19;;;;;;;9.93;5.40;;;0.30;94.70;;;;;;5002863;28;20491;-87
2022/12/15 08:33:46;;;;;;;10.88;5.82;;;0.40;94.60;;;;;;5004187;28;20421;-87
2022/12/15 08:36:14;;;;;;;11.15;6.53;;;0.50;94.40;;;;;;5002273;28;20424;-87
2022/12/15 08:38:41;;;;;;;12.57;7.45;;;0.60;94.40;;;;;;5003992;28;20447;-86
2022/12/15 08:41:20;;;;;;;13.07;7.60;;;0.70;94.40;;;;;;5002563;28;20500;-86
2022/12/15 08:43:46;;;;;;;12.93;6.93;;;0.70;94.40;;;;;;5002904;28;20417;-86
2022/12/15 08:46:12;;;;;;;10.60;6.90;;;0.80;94.20;;;;;;5002664;28;20463;-86
2022/12/15 08:48:38;;;;;;;9.70;6.50;;;0.80;94.10;;;;;;5002363;28;20459;-87
2022/12/15 08:51:05;;;;;;;13.02;7.75;;;0.80;93.90;;;;;;5003425;28;20464;-87
2022/12/15 08:53:30;;;;;;;11.77;6.80;;;0.90;94.00;;;;;;5002451;28;20409;-86
2022/12/15 08:56:04;;;;;;;9.70;7.13;;;0.90;94.00;;;;;;5003582;28;20416;-87
2022/12/15 08:58:30;;;;;;;12.83;7.80;;;0.90;93.90;;;;;;5002386;28;20509;-87
2022/12/15 09:01:05;;;;;;;12.17;8.23;;;0.90;94.00;;;;;;5001601;28;21109;-87
2022/12/15 09:03:31;;;;;;;12.80;7.00;;;1.00;94.00;;;;;;5002482;28;20459;-86
2022/12/15 09:06:02;;;;;;;13.23;7.90;;;1.00;94.00;;;;;;4997724;28;20412;-86
2022/12/15 09:08:29;;;;;;;11.00;7.77;;;1.10;93.80;;;;;;4991452;28;20952;-87
2022/12/15 09:10:58;;;;;;;10.57;7.70;;;1.10;93.80;;;;;;4984689;28;20438;-87
2022/12/15 09:13:24;;;;;;;10.65;6.50;;;1.10;93.70;;;;;;4983132;28;20407;-87
2022/12/15 09:15:58;;;;;;;12.45;6.35;;;1.20;93.80;;;;;;4982694;28;20917;-86
2022/12/15 09:18:23;;;;;;;12.30;6.47;;;1.20;93.70;;;;;;4982607;28;20425;-86
2022/12/15 09:20:49;;;;;;;10.80;7.13;;;1.30;93.50;;;;;;4982353;28;20755;-86
2022/12/15 09:23:15;;;;;;;10.37;5.93;;;1.30;93.50;;;;;;4982032;28;20524;-86
2022/12/15 09:25:41;;;;;;;11.05;6.30;;;1.30;93.40;;;;;;4986041;28;20423;-86
2022/12/15 09:28:06;;;;;;;11.73;6.53;;;1.40;93.40;;;;;;5000851;28;21011;-87
2022/12/15 09:30:32;;;;;;;11.02;6.18;;;1.40;93.60;;;;;;5001816;28;20434;-87
2022/12/15 09:32:57;;;;;;;12.80;5.80;;;1.50;93.30;;;;;;4990545;28;20495;-86
2022/12/15 09:35:26;;;;;;;10.43;5.73;;;1.60;93.20;;;;;;5022880;28;20424;-86
2022/12/15 09:37:52;;;;;;;11.15;5.18;;;1.90;93.20;;;;;;5022135;28;20447;-87
2022/12/15 09:40:18;;;;;;;11.88;4.53;;;2.10;92.90;;;;;;5006000;28;20771;-87
2022/12/15 09:42:53;;;;;;;9.02;4.00;;;2.40;92.50;;;;;;5023608;28;20409;-86
2022/12/15 09:45:24;;;;;;;10.53;4.10;;;2.60;92.00;;;;;;5022273;28;20795;-87
2022/12/15 09:47:59;;;;;;;8.23;4.28;;;2.80;91.60;;;;;;5023362;28;20814;-88
2022/12/15 09:50:32;;;;;;;9.17;4.17;;;3.00;91.00;;;;;;5021908;28;20535;-87
2022/12/15 09:53:01;;;;;;;9.47;4.17;;;2.90;90.90;;;;;;5022127;28;20447;-87
2022/12/15 09:55:30;;;;;;;6.88;3.45;;;2.90;91.00;;;;;;5022523;28;20798;-87
2022/12/15 09:58:14;;;;;;;8.98;4.32;;;2.80;90.80;;;;;;5005407;28;20404;-87
2022/12/15 10:00:55;;;;;;;10.90;4.07;;;2.70;91.10;;;;;;5006144;28;20412;-85
2022/12/15 10:03:27;;;;;;;11.25;4.10;;;2.60;91.10;;;;;;5021757;28;20419;-86
2022/12/15 10:06:18;;;;;;;9.00;4.25;;;2.50;91.40;;;;;;5005797;28;20416;-87
2022/12/15 10:09:00;;;;;;;8.82;3.72;;;2.40;91.60;;;;;;5006395;28;20443;-85
2022/12/15 10:11:45;;;;;;;8.27;4.63;;;2.50;91.50;;;;;;5021108;28;20468;-86
2022/12/15 10:14:29;;;;;;;9.68;4.70;;;2.50;91.50;;;;;;5022491;28;20772;-86
2022/12/15 10:17:26;;;;;;;9.65;4.57;;;2.50;91.50;;;;;;5021634;28;20417;-86
2022/12/15 10:20:05;;;;;;;8.75;4.95;;;2.60;91.50;;;;;;5021038;28;20492;-86
2022/12/15 10:22:35;;;;;;;8.88;4.78;;;2.60;91.50;;;;;;5005767;28;20417;-86
2022/12/15 10:25:14;;;;;;;9.00;5.37;;;2.60;91.40;;;;;;5021130;28;20420;-87
2022/12/15 10:28:01;;;;;;;11.45;5.57;;;2.60;91.30;;;;;;5005061;28;20458;-86
2022/12/15 10:30:27;;;;;;;12.00;5.80;;;2.60;91.30;;;;;;5022008;28;20476;-86
2022/12/15 10:33:18;;;;;;;10.53;5.53;;;2.60;91.50;;;;;;5004997;28;20472;-86
2022/12/15 10:35:44;;;;;;;10.75;5.10;;;2.60;91.50;;;;;;5004997;28;20934;-87
2022/12/15 10:38:34;;;;;;;8.80;4.80;;;2.70;91.50;;;;;;5004530;28;20497;-85
2022/12/15 10:41:07;;;;;;;9.18;5.05;;;2.70;91.30;;;;;;5020943;28;20492;-87
2022/12/15 10:43:43;;;;;;;8.52;4.30;;;2.80;91.20;;;;;;5026018;28;20427;-86
2022/12/15 10:46:17;;;;;;;10.30;4.75;;;2.80;90.90;;;;;;5023834;28;20514;-86
2022/12/15 10:48:46;;;;;;;10.07;4.93;;;2.80;90.90;;;;;;5025134;28;20467;-86
2022/12/15 10:51:16;;;;;;;11.20;4.85;;;2.80;91.20;;;;;;5023933;28;20510;-87
2022/12/15 10:53:44;;;;;;;9.35;4.18;;;2.90;91.30;;;;;;5024319;28;20918;-87
2022/12/15 10:56:20;;;;;;;10.45;4.78;;;3.10;91.10;;;;;;5025022;28;21139;-86
2022/12/15 10:58:52;;;;;;;11.02;4.75;;;3.20;90.80;;;;;;5024176;28;20843;-87
2022/12/15 11:01:27;;;;;;;6.90;3.97;;;3.20;90.40;;;;;;5024861;28;20422;-87
2022/12/15 11:03:53;;;;;;;8.95;3.83;;;3.20;90.10;;;;;;5024224;28;20415;-87
2022/12/15 11:06:35;;;;;;;10.43;3.93;;;3.30;89.80;;;;;;5024389;28;20454;-88
2022/12/15 11:09:23;;;;;;;7.90;3.67;;;3.30;90.20;;;;;;5006085;28;20428;-88
2022/12/15 11:14:47;;;;;;;10.68;3.78;;;3.40;89.90;;;;;;5024890;28;20399;-88
2022/12/15 11:17:15;;;;;;;9.30;3.60;;;3.40;89.50;;;;;;5023796;28;20426;-87
2022/12/15 11:20:05;;;;;;;9.30;3.45;;;3.50;89.50;;;;;;5024344;28;20403;-88
2022/12/15 11:22:37;;;;;;;12.43;3.83;;;3.60;89.10;;;;;;5024551;28;20964;-87
2022/12/15 11:25:21;;;;;;;8.15;3.85;;;3.70;88.50;;;;;;5023382;28;20407;-87
2022/12/15 11:27:49;;;;;;;8.32;3.97;;;3.60;88.50;;;;;;5024594;28;20451;-88
2022/12/15 11:30:18;;;;;;;9.90;4.25;;;3.60;88.60;;;;;;5010032;28;20416;-86
2022/12/15 11:32:52;;;;;;;7.32;4.13;;;3.50;88.70;;;;;;5002246;28;20429;-87
2022/12/15 11:35:45;;;;;;;9.32;3.88;;;3.40;88.90;;;;;;5004121;28;20413;-86
2022/12/15 11:38:37;;;;;;;10.23;3.75;;;3.40;89.40;;;;;;5002404;28;20409;-86
2022/12/15 11:41:38;;;;;;;10.25;3.95;;;3.50;88.90;;;;;;4975643;28;20475;-87
2022/12/15 11:44:21;;;;;;;8.88;3.20;;;3.70;88.60;;;;;;5003862;28;20443;-87
2022/12/15 11:47:11;;;;;;;8.93;3.30;;;3.80;88.30;;;;;;5003018;28;20752;-87
2022/12/15 11:50:08;;;;;;;8.98;3.20;;;3.90;88.00;;;;;;4987636;28;20450;-87
2022/12/15 11:52:43;;;;;;;9.25;3.60;;;4.10;87.10;;;;;;5004367;28;20405;-87
2022/12/15 11:55:27;;;;;;;8.10;3.30;;;4.20;86.10;;;;;;5019260;28;20416;-89
2022/12/15 11:58:03;;;;;;;7.70;3.17;;;4.30;86.50;;;;;;5004458;28;20409;-88
2022/12/15 12:00:34;;;;;;;8.68;2.92;;;4.50;85.90;;;;;;4987743;28;20842;-88
2022/12/15 12:03:20;;;;;;;8.60;3.47;;;4.80;84.50;;;;;;5001032;28;20485;-88
2022/12/15 12:05:57;;;;;;;7.95;3.40;;;4.90;83.80;;;;;;4984640;28;20402;-88
2022/12/15 12:08:53;;;;;;;8.70;3.50;;;5.00;83.30;;;;;;4967834;28;20414;-88
2022/12/15 12:11:38;;;;;;;8.32;3.30;;;5.10;83.20;;;;;;4984378;28;20434;-88
2022/12/15 12:14:32;;;;;;;7.40;3.10;;;5.30;82.20;;;;;;4998598;28;20401;-88
2022/12/15 12:16:58;;;;;;;8.68;3.28;;;5.60;81.00;;;;;;4989732;28;20409;-89
2022/12/15 12:19:33;;;;;;;7.05;3.08;;;5.80;79.70;;;;;;4996036;28;20444;-88
2022/12/15 12:22:05;;;;;;;7.72;3.50;;;5.80;78.70;;;;;;5036396;28;21058;-88
2022/12/15 12:24:46;;;;;;;8.30;3.87;;;5.70;79.80;;;;;;5022610;28;20433;-87
2022/12/15 12:27:33;;;;;;;8.60;4.00;;;5.50;80.00;;;;;;5004159;28;20416;-87
2022/12/15 12:30:10;;;;;;;10.18;4.40;;;5.30;80.50;;;;;;5002872;28;20413;-87
2022/12/15 12:32:36;;;;;;;8.93;4.35;;;5.20;80.70;;;;;;5003745;28;20440;-87
2022/12/15 12:35:24;;;;;;;11.90;4.50;;;5.20;81.60;;;;;;5002648;28;20413;-87
2022/12/15 12:37:55;;;;;;;9.15;4.07;;;5.00;81.50;;;;;;5002718;28;20443;-87
2022/12/15 12:40:45;;;;;;;9.98;4.25;;;4.80;82.10;;;;;;5003637;28;20463;-87
2022/12/15 12:43:37;;;;;;;10.93;4.28;;;4.60;83.20;;;;;;5003240;28;20416;-88
2022/12/15 12:46:15;;;;;;;6.15;3.35;;;4.50;84.10;;;;;;4987209;28;20417;-88
2022/12/15 12:48:43;;;;;;;8.45;3.15;;;4.40;84.50;;;;;;5004167;28;20440;-86
2022/12/15 12:51:21;;;;;;;9.13;2.85;;;4.50;84.80;;;;;;5003418;28;20436;-89
2022/12/15 12:53:47;;;;;;;8.40;3.35;;;4.50;83.90;;;;;;5004859;28;20417;-87
2022/12/15 12:56:40;;;;;;;11.23;3.83;;;4.50;84.60;;;;;;5003433;28;20427;-88
2022/12/15 12:59:28;;;;;;;7.95;4.07;;;4.30;84.50;;;;;;5003345;28;20502;-87
2022/12/15 13:01:54;;;;;;;9.00;4.03;;;4.10;85.50;;;;;;5003298;28;20828;-87
2022/12/15 13:04:41;;;;;;;8.20;3.77;;;4.10;86.00;;;;;;5002113;28;20423;-86
2022/12/15 13:07:27;;;;;;;8.77;4.00;;;4.00;86.50;;;;;;5003288;28;20954;-86
2022/12/15 13:10:15;;;;;;;9.70;3.70;;;4.00;86.50;;;;;;5002402;28;20421;-87
2022/12/15 13:12:44;;;;;;;6.93;3.80;;;3.90;86.50;;;;;;5002367;28;20459;-87
2022/12/15 13:15:39;;;;;;;9.10;3.90;;;3.80;87.10;;;;;;5003778;28;21011;-87
2022/12/15 13:18:05;;;;;;;11.73;4.13;;;3.70;87.30;;;;;;5002448;28;20417;-87
2022/12/15 13:20:34;;;;;;;10.77;4.00;;;3.60;88.00;;;;;;5003299;28;20939;-87
2022/12/15 13:23:18;;;;;;;7.70;4.07;;;3.60;88.40;;;;;;4988013;28;20492;-87
2022/12/15 13:26:04;;;;;;;9.95;4.60;;;3.60;88.60;;;;;;4973610;28;20424;-87
2022/12/15 13:28:38;;;;;;;7.93;3.90;;;3.60;88.20;;;;;;4971421;28;20494;-87
2022/12/15 13:31:17;;;;;;;9.85;4.57;;;3.70;88.50;;;;;;5021875;28;20480;-87
2022/12/15 13:33:49;;;;;;;9.82;4.30;;;3.60;88.60;;;;;;4975788;28;20425;-88
2022/12/15 13:36:36;;;;;;;8.73;4.28;;;3.60;88.50;;;;;;5000402;28;20417;-88
2022/12/15 13:39:11;;;;;;;9.38;4.55;;;3.60;88.70;;;;;;5034978;28;21044;-88
2022/12/15 13:41:46;;;;;;;8.23;4.68;;;3.70;88.30;;;;;;5036127;28;20500;-88
2022/12/15 13:44:19;;;;;;;9.90;4.60;;;3.70;88.20;;;;;;5035382;28;20916;-87
2022/12/15 13:46:46;;;;;;;7.72;4.22;;;3.60;88.60;;;;;;5035869;28;20413;-88
2022/12/15 13:49:33;;;;;;;8.40;4.25;;;3.80;88.30;;;;;;5035763;28;20424;-87
2022/12/15 13:52:10;;;;;;;9.63;4.47;;;3.90;88.00;;;;;;5034725;28;20902;-87
2022/12/15 13:54:40;;;;;;;9.45;3.78;;;3.80;87.90;;;;;;5036246;28;20418;-86
2022/12/15 13:57:13;;;;;;;9.97;3.97;;;3.80;87.70;;;;;;5018842;28;20898;-88
2022/12/15 13:59:38;;;;;;;8.23;3.80;;;3.70;87.80;;;;;;5019074;28;20850;-87
2022/12/15 14:02:24;;;;;;;10.17;3.90;;;3.70;88.00;;;;;;5035311;28;20405;-87
2022/12/15 14:05:10;;;;;;;9.00;4.30;;;3.70;88.40;;;;;;5001578;28;20405;-87
2022/12/15 14:07:37;;;;;;;9.65;4.13;;;3.60;88.80;;;;;;5035719;28;20419;-87
2022/12/15 14:10:14;;;;;;;9.13;4.10;;;3.60;88.60;;;;;;5034872;28;20459;-87
2022/12/15 14:12:40;;;;;;;8.85;4.30;;;3.60;87.90;;;;;;5006199;28;20405;-88
2022/12/15 14:15:13;;;;;;;9.43;4.47;;;3.60;88.70;;;;;;5039218;28;20985;-89
2022/12/15 14:17:39;;;;;;;10.70;4.82;;;3.60;89.00;;;;;;5021930;28;20405;-87
2022/12/15 14:20:16;;;;;;;9.07;4.43;;;3.60;90.00;;;;;;5039759;28;20416;-88
2022/12/15 14:22:42;;;;;;;9.73;4.40;;;3.60;89.80;;;;;;5025172;28;21273;-88
2022/12/15 14:25:19;;;;;;;8.33;4.67;;;3.60;90.20;;;;;;4999682;28;20408;-88
2022/12/15 14:27:45;;;;;;;10.50;5.03;;;3.60;90.20;;;;;;5004921;28;20436;-87
2022/12/15 14:30:13;;;;;;;11.37;4.67;;;3.60;90.40;;;;;;5004556;28;21765;-87
2022/12/15 14:32:41;;;;;;;12.38;4.90;;;3.60;90.30;;;;;;5005660;28;20413;-87
2022/12/15 14:35:14;;;;;;;10.17;5.30;;;3.60;90.70;;;;;;5004577;28;20397;-87
2022/12/15 14:37:40;;;;;;;11.00;5.03;;;3.60;91.30;;;;;;4989825;28;20480;-89
2022/12/15 14:40:11;;;;;;;8.57;4.80;;;3.50;91.60;;;;;;4989542;28;20444;-86
2022/12/15 14:42:37;;;;;;;9.35;4.63;;;3.50;92.10;;;;;;4989408;28;20409;-89
2022/12/15 14:45:03;;;;;;;11.27;4.85;;;3.40;92.30;;;;;;5005324;28;20443;-87
2022/12/15 14:47:32;;;;;;;10.88;5.30;;;3.30;92.40;;;;;;4988946;28;20407;-87
2022/12/15 14:50:00;;;;;;;12.60;5.60;;;3.30;92.50;;;;;;5005823;28;20417;-87
2022/12/15 14:52:41;;;;;;;12.98;6.22;;;3.30;92.80;;;;;;4988248;28;20842;-88
2022/12/15 14:55:40;;;;;;;17.48;7.80;;;3.30;93.10;;;;;;4989643;28;20421;-87
2022/12/15 14:58:27;;;;;;;13.63;7.32;;;3.10;93.60;;;;;;4986938;28;20427;-87
2022/12/15 15:00:54;;;;;;;13.15;7.43;;;3.10;93.60;;;;;;5021854;28;20417;-88
2022/12/15 15:03:25;;;;;;;14.85;7.50;;;2.90;93.40;;;;;;4989783;28;20405;-88
2022/12/15 15:05:53;;;;;;;14.52;7.30;;;2.80;93.50;;;;;;4988586;28;20484;-88
2022/12/15 15:08:41;;;;;;;14.80;7.95;;;2.70;93.50;;;;;;5022134;28;21156;-87
2022/12/15 15:11:23;;;;;;;16.40;8.40;;;2.60;93.60;;;;;;4989072;28;20808;-88
2022/12/15 15:13:54;;;;;;;13.95;8.02;;;2.70;93.60;;;;;;4988502;28;20427;-87
2022/12/15 15:16:20;;;;;;;14.15;9.30;;;2.50;94.00;;;;;;4989596;28;20409;-87
2022/12/15 15:18:50;;;;;;;20.10;9.93;;;2.40;93.70;;;;;;4988063;28;20411;-88
2022/12/15 15:21:23;;;;;;;17.23;9.68;;;2.30;93.80;;;;;;4988926;28;20424;-87
2022/12/15 15:24:09;;;;;;;16.45;8.93;;;2.20;93.80;;;;;;5004374;28;20411;-88
2022/12/15 15:26:35;;;;;;;15.10;9.38;;;2.20;93.90;;;;;;4988803;28;20431;-89
2022/12/15 15:29:00;;;;;;;16.13;9.90;;;2.10;94.10;;;;;;4989175;28;20442;-88
2022/12/15 15:31:35;;;;;;;16.27;8.93;;;2.00;94.20;;;;;;5004209;28;20947;-87
2022/12/15 15:34:00;;;;;;;14.73;9.07;;;2.00;94.30;;;;;;4989343;28;20413;-88
2022/12/15 15:36:31;;;;;;;16.17;9.40;;;2.00;94.50;;;;;;5004107;28;20425;-88
2022/12/15 15:38:57;;;;;;;16.65;9.10;;;2.00;94.50;;;;;;4989179;28;20784;-88
2022/12/15 15:41:29;;;;;;;14.10;9.15;;;1.90;94.50;;;;;;4988701;28;20416;-87
2022/12/15 15:44:00;;;;;;;15.13;9.90;;;1.90;94.50;;;;;;4988413;28;20421;-87